BWN weather

Brunei International Airport
Bandar Seri Begawan, Brunei-Muara District, Brunei

Public forecast

Using degrees Celsius for public forecast. Weather courtesy of forecast.io.

Current aviation weather report (METAR) for Brunei International Airport

Retrieved 2020/01/21 07:30 UTC (19 minutes ago):

WBSB 210730Z 34006KT 9999 FEW017 BKN300 31/25 Q1011 NOSIG

Aviation forecast (TAF) for Brunei International Airport

Retrieved 2020/01/21 06:12 UTC (2 hours ago):

TAF WBSB 210450Z 2106/2212 04010KT 9999 FEW017 BECMG 2118/2120 20003KT 9000 FEW014